EHGG/GRQ METAR and TAF weather

Enter ICAO airport designator
Station Type Date Time Source
EHGG METAR 2019/04/25 21:55 UTC NOAA

EHGG 252155Z AUTO 26005KT 9999 -RA FEW015CB 12/10 Q1008


Station Type Date Time Source
EHGG Decoded METAR 2019/04/25 21:55 UTC NOAA

Groningen Airport Eelde, Netherlands (EHGG) 53-08N 006-35E 4M
Apr 25, 2019 - 05:55 PM EDT / 2019.04.25 2155 UTC
Wind: from the W (260 degrees) at 6 MPH (5 KT):0
Visibility: greater than 7 mile(s):0
Sky conditions: mostly clear
Weather: light rain; Cumulonimbus clouds observed
Temperature: 53 F (12 C)
Dew Point: 50 F (10 C)
Relative Humidity: 87%
Pressure (altimeter): 29.77 in. Hg (1008 hPa)
ob: EHGG 252155Z AUTO 26005KT 9999 -RA FEW015CB 12/10 Q1008
cycle: 22

Station Type Date Time Source
EHGG TAF 2019/04/25 18:27 UTC NOAA

TAF EHGG 251719Z 2518/2624 17012KT 9999 -RA NSC
BECMG 2518/2521 VRB03KT PROB40
TEMPO 2518/2608 25013KT 7000 RA SHRA BKN030 FEW050CB
BECMG 2607/2609 25010KT
BECMG 2617/2619 15005KT

Example: see airport list